createdAt,value
2017-03-06T00:00:07.537Z,20.6
2017-03-06T00:02:05.310Z,20.6
2017-03-06T00:04:05.398Z,20.6
2017-03-06T00:06:05.124Z,20.5
2017-03-06T00:08:04.851Z,20.6
2017-03-06T00:10:05.423Z,20.6
2017-03-06T00:12:07.969Z,20.6
2017-03-06T00:14:04.761Z,20.6
2017-03-06T00:16:08.428Z,20.6
2017-03-06T00:18:05.394Z,20.6
2017-03-06T00:20:05.124Z,20.6
2017-03-06T00:22:05.291Z,20.6
2017-03-06T00:24:07.522Z,20.6
2017-03-06T00:26:05.266Z,20.6
2017-03-06T00:28:05.845Z,20.6
2017-03-06T00:30:07.731Z,20.6
2017-03-06T00:32:05.493Z,20.6
2017-03-06T00:34:05.353Z,20.6
2017-03-06T00:36:05.129Z,20.6
2017-03-06T00:38:04.839Z,20.6
2017-03-06T00:40:13.481Z,20.6
2017-03-06T00:42:05.204Z,20.6
2017-03-06T00:44:10.300Z,20.6
2017-03-06T00:46:05.155Z,20.6
2017-03-06T00:48:07.410Z,20.6
2017-03-06T00:50:05.109Z,20.6
2017-03-06T00:52:05.627Z,20.5
2017-03-06T00:54:05.341Z,20.6
2017-03-06T00:56:05.139Z,20.6
2017-03-06T00:58:05.059Z,20.6
2017-03-06T01:00:05.081Z,20.6
2017-03-06T01:02:04.791Z,20.6
2017-03-06T01:04:05.059Z,20.6
2017-03-06T01:06:09.904Z,20.5
2017-03-06T01:08:04.589Z,20.6
2017-03-06T01:10:05.567Z,20.6
2017-03-06T01:12:04.882Z,20.6
2017-03-06T01:14:07.691Z,20.6
2017-03-06T01:16:04.812Z,20.6
2017-03-06T01:18:04.720Z,20.6
2017-03-06T01:20:05.433Z,20.6
2017-03-06T01:22:08.025Z,20.5
2017-03-06T01:24:04.724Z,20.5
2017-03-06T01:26:05.436Z,20.6
2017-03-06T01:28:05.328Z,20.6
2017-03-06T01:30:05.070Z,20.6
2017-03-06T01:32:07.553Z,20.6
2017-03-06T01:34:05.533Z,20.6
2017-03-06T01:36:05.237Z,20.5
2017-03-06T01:38:07.520Z,20.5
2017-03-06T01:40:08.219Z,20.5
2017-03-06T01:42:04.946Z,20.5
2017-03-06T01:44:04.665Z,20.6
2017-03-06T01:46:05.115Z,20.5
2017-03-06T01:48:05.201Z,20.5
2017-03-06T01:50:04.911Z,20.5
2017-03-06T01:52:04.794Z,20.5
2017-03-06T01:54:05.522Z,20.6
2017-03-06T01:56:05.249Z,20.6
2017-03-06T01:58:08.307Z,20.6
2017-03-06T02:00:05.564Z,20.5
2017-03-06T02:02:05.291Z,20.6
2017-03-06T02:04:05.433Z,20.5
2017-03-06T02:06:10.201Z,20.6
2017-03-06T02:08:04.874Z,20.5
2017-03-06T02:10:05.461Z,20.5
2017-03-06T02:12:05.337Z,20.6
2017-03-06T02:14:05.150Z,20.5
2017-03-06T02:16:05.208Z,20.6
2017-03-06T02:18:04.847Z,20.5
2017-03-06T02:20:06.051Z,20.6
2017-03-06T02:22:04.976Z,20.6
2017-03-06T02:24:04.729Z,20.5
2017-03-06T02:26:07.937Z,20.6
2017-03-06T02:28:07.467Z,20.5
2017-03-06T02:30:05.208Z,20.5
2017-03-06T02:32:07.429Z,20.5
2017-03-06T02:34:07.972Z,20.5
2017-03-06T02:36:05.094Z,20.5
2017-03-06T02:38:04.874Z,20.5
2017-03-06T02:40:08.493Z,20.5
2017-03-06T02:42:04.709Z,20.5
2017-03-06T02:44:05.465Z,20.5
2017-03-06T02:46:05.416Z,20.5
2017-03-06T02:48:05.118Z,20.5
2017-03-06T02:50:09.814Z,20.5
2017-03-06T02:52:08.447Z,20.6
2017-03-06T02:54:05.261Z,20.5
2017-03-06T02:56:04.975Z,20.5
2017-03-06T02:58:04.811Z,20.5
2017-03-06T03:00:04.710Z,20.6
2017-03-06T03:02:07.512Z,20.5
2017-03-06T03:04:07.534Z,20.5
2017-03-06T03:06:10.399Z,20.5
2017-03-06T03:08:05.342Z,20.5
2017-03-06T03:10:10.398Z,20.5
2017-03-06T03:12:05.066Z,20.5
2017-03-06T03:14:05.351Z,20.5
2017-03-06T03:16:05.335Z,20.5
2017-03-06T03:18:05.232Z,20.5
2017-03-06T03:20:04.955Z,20.5
2017-03-06T03:22:05.029Z,20.5
2017-03-06T03:24:05.151Z,20.5
2017-03-06T03:26:04.868Z,20.5
2017-03-06T03:28:05.405Z,20.6
2017-03-06T03:30:05.211Z,20.5
2017-03-06T03:32:04.950Z,20.5
2017-03-06T03:34:10.004Z,20.5
2017-03-06T03:36:04.935Z,20.5
2017-03-06T03:38:04.891Z,20.5
2017-03-06T03:40:04.910Z,20.5
2017-03-06T03:42:04.715Z,20.5
2017-03-06T03:44:08.086Z,20.5
2017-03-06T03:46:05.001Z,20.5
2017-03-06T03:48:07.279Z,20.5
2017-03-06T03:50:05.012Z,20.5
2017-03-06T03:52:05.104Z,20.5
2017-03-06T03:54:04.934Z,20.5
2017-03-06T03:56:07.446Z,20.5
2017-03-06T03:58:05.309Z,20.5
2017-03-06T04:00:05.549Z,20.5
2017-03-06T04:02:05.352Z,20.5
2017-03-06T04:04:05.443Z,20.5
2017-03-06T04:06:05.153Z,20.5
2017-03-06T04:08:04.852Z,20.5
2017-03-06T04:10:08.390Z,20.5
2017-03-06T04:12:05.251Z,20.5
2017-03-06T04:14:04.978Z,20.5
2017-03-06T04:16:04.933Z,20.5
2017-03-06T04:18:04.844Z,20.5
2017-03-06T04:20:05.554Z,20.5
2017-03-06T04:22:05.571Z,20.5
2017-03-06T04:24:07.358Z,20.5
2017-03-06T04:26:05.074Z,20.5
2017-03-06T04:28:05.080Z,20.5
2017-03-06T04:30:07.499Z,20.5
2017-03-06T04:32:05.231Z,20.5
2017-03-06T04:34:05.154Z,20.5
2017-03-06T04:36:04.954Z,20.5
2017-03-06T04:38:04.649Z,20.5
2017-03-06T04:40:05.044Z,20.5
2017-03-06T04:42:04.701Z,20.5
2017-03-06T04:44:05.510Z,20.5
2017-03-06T04:46:05.595Z,20.5
2017-03-06T04:48:10.423Z,20.5
2017-03-06T04:50:05.191Z,20.5
2017-03-06T04:52:05.080Z,20.5
2017-03-06T04:54:04.831Z,20.5
2017-03-06T04:56:05.578Z,20.5
2017-03-06T04:58:10.532Z,20.5
2017-03-06T05:00:08.126Z,20.5
2017-03-06T05:02:12.431Z,20.5
2017-03-06T05:04:11.304Z,20.5
2017-03-06T05:06:05.662Z,20.5
2017-03-06T05:08:06.567Z,20.5
2017-03-06T05:10:05.683Z,20.5
2017-03-06T05:12:08.143Z,20.5
2017-03-06T05:14:04.984Z,20.5
2017-03-06T05:16:07.533Z,20.5
2017-03-06T05:18:05.044Z,20.5
2017-03-06T05:20:04.841Z,20.5
2017-03-06T05:22:05.720Z,20.5
2017-03-06T05:24:04.998Z,20.5
2017-03-06T05:26:05.418Z,20.5
2017-03-06T05:28:05.303Z,20.5
2017-03-06T05:30:04.666Z,20.5
2017-03-06T05:32:05.538Z,20.5
2017-03-06T05:34:08.101Z,20.5
2017-03-06T05:36:07.447Z,20.5
2017-03-06T05:38:05.323Z,20.5
2017-03-06T05:40:07.692Z,20.5
2017-03-06T05:42:12.192Z,20.5
2017-03-06T05:44:04.758Z,20.5
2017-03-06T05:46:04.923Z,20.5
2017-03-06T05:48:04.781Z,20.5
2017-03-06T05:50:08.076Z,20.5
2017-03-06T05:52:05.808Z,20.5
2017-03-06T05:54:05.611Z,20.5
2017-03-06T05:56:10.480Z,20.5
2017-03-06T05:58:05.514Z,20.5
2017-03-06T06:00:05.508Z,20.5
2017-03-06T06:02:07.268Z,20.5
2017-03-06T06:04:05.345Z,20.5
2017-03-06T06:06:05.055Z,20.5
2017-03-06T06:08:04.771Z,20.5
2017-03-06T06:10:05.631Z,20.5
2017-03-06T06:12:05.321Z,20.5
2017-03-06T06:14:05.237Z,20.5
2017-03-06T06:16:07.805Z,20.5
2017-03-06T06:18:09.803Z,20.5
2017-03-06T06:20:08.420Z,20.5
2017-03-06T06:22:05.412Z,20.5
2017-03-06T06:24:05.094Z,20.5
2017-03-06T06:26:04.803Z,20.5
2017-03-06T06:28:05.769Z,20.5
2017-03-06T06:30:05.469Z,20.5
2017-03-06T06:32:07.789Z,20.5
2017-03-06T06:34:07.882Z,20.5
2017-03-06T06:36:04.849Z,20.5
2017-03-06T06:38:08.049Z,20.5
2017-03-06T06:40:05.060Z,20.5
2017-03-06T06:42:04.821Z,20.5
2017-03-06T06:44:05.534Z,20.5
2017-03-06T06:46:05.673Z,20.5
2017-03-06T06:48:05.396Z,20.5
2017-03-06T06:50:05.102Z,20.5
2017-03-06T06:52:10.278Z,20.5
2017-03-06T06:54:04.966Z,20.5
2017-03-06T06:56:12.200Z,20.5
2017-03-06T06:58:06.284Z,20.5
2017-03-06T07:00:05.013Z,20.5
2017-03-06T07:02:04.772Z,20.5
2017-03-06T07:04:08.425Z,20.5
2017-03-06T07:06:05.157Z,20.5
2017-03-06T07:08:05.255Z,20.5
2017-03-06T07:10:07.807Z,20.5
2017-03-06T07:12:05.516Z,20.5
2017-03-06T07:14:05.285Z,20.5
2017-03-06T07:16:05.334Z,20.5
2017-03-06T07:18:05.221Z,20.5
2017-03-06T07:20:10.056Z,20.5
2017-03-06T07:22:05.079Z,20.5
2017-03-06T07:24:07.709Z,20.5
2017-03-06T07:26:05.422Z,20.5
2017-03-06T07:28:05.528Z,20.5
2017-03-06T07:30:07.864Z,20.5
2017-03-06T07:32:12.209Z,20.5
2017-03-06T07:34:05.029Z,20.5
2017-03-06T07:36:05.300Z,20.5
2017-03-06T07:38:05.095Z,20.5
2017-03-06T07:40:05.361Z,20.5
2017-03-06T07:42:04.740Z,20.5
2017-03-06T07:44:05.560Z,20.5
2017-03-06T07:46:05.662Z,20.5
2017-03-06T07:48:04.898Z,20.5
2017-03-06T07:50:04.655Z,20.5
2017-03-06T07:52:05.489Z,20.5
2017-03-06T07:54:04.709Z,20.5
2017-03-06T07:56:05.274Z,20.5
2017-03-06T07:58:05.306Z,20.5
2017-03-06T08:00:05.005Z,20.5
2017-03-06T08:02:04.714Z,20.5
2017-03-06T08:04:05.795Z,20.5
2017-03-06T08:06:05.534Z,20.5
2017-03-06T08:08:05.261Z,20.5
2017-03-06T08:10:05.783Z,20.5
2017-03-06T08:12:05.851Z,20.5
2017-03-06T08:14:05.121Z,20.5
2017-03-06T08:16:07.741Z,20.5
2017-03-06T08:18:04.763Z,20.5
2017-03-06T08:20:05.500Z,20.5
2017-03-06T08:22:05.602Z,20.5
2017-03-06T08:24:07.889Z,20.5
2017-03-06T08:26:05.605Z,20.5
2017-03-06T08:28:05.459Z,20.5
2017-03-06T08:30:04.804Z,20.5
2017-03-06T08:32:05.557Z,20.5
2017-03-06T08:34:05.685Z,20.5
2017-03-06T08:36:04.950Z,20.5
2017-03-06T08:38:04.767Z,20.5
2017-03-06T08:40:05.251Z,20.5
2017-03-06T08:42:04.991Z,20.5
2017-03-06T08:44:05.127Z,20.5
2017-03-06T08:46:05.717Z,20.5
2017-03-06T08:48:05.375Z,20.5
2017-03-06T08:50:05.602Z,20.5
2017-03-06T08:52:05.663Z,20.5
2017-03-06T08:54:05.428Z,20.5
2017-03-06T08:56:04.739Z,20.5
2017-03-06T08:58:05.782Z,20.6
2017-03-06T09:00:05.146Z,20.6
2017-03-06T09:02:04.924Z,20.5
2017-03-06T09:04:04.855Z,20.5
2017-03-06T09:06:05.593Z,20.6
2017-03-06T09:08:05.303Z,20.6
2017-03-06T09:10:05.391Z,20.6
2017-03-06T09:12:05.166Z,20.6
2017-03-06T09:14:05.361Z,20.6
2017-03-06T09:16:05.472Z,20.6
2017-03-06T09:18:04.954Z,20.6
2017-03-06T09:20:05.213Z,20.6
2017-03-06T09:22:05.225Z,20.6
2017-03-06T09:24:04.986Z,20.6
2017-03-06T09:26:04.753Z,20.6
2017-03-06T09:28:05.769Z,20.6
2017-03-06T09:30:05.488Z,20.6
2017-03-06T09:32:05.619Z,20.6
2017-03-06T09:34:05.146Z,20.6
2017-03-06T09:36:04.883Z,20.6
2017-03-06T09:38:05.421Z,20.6
2017-03-06T09:40:05.316Z,20.6
2017-03-06T09:42:05.064Z,20.6
2017-03-06T09:44:09.911Z,20.6
2017-03-06T09:46:04.994Z,20.6
2017-03-06T09:48:05.008Z,20.6
2017-03-06T09:50:04.744Z,20.6
2017-03-06T09:52:05.788Z,20.6
2017-03-06T09:54:05.525Z,20.6
2017-03-06T09:56:04.798Z,20.6
2017-03-06T09:58:05.847Z,20.6
2017-03-06T10:00:05.601Z,20.6
2017-03-06T10:02:05.338Z,20.6
2017-03-06T10:04:07.943Z,20.6
2017-03-06T10:06:04.703Z,20.6
2017-03-06T10:08:08.140Z,20.7
2017-03-06T10:10:04.984Z,20.7
2017-03-06T10:12:06.210Z,20.7
2017-03-06T10:14:07.498Z,20.7
2017-03-06T10:16:05.502Z,20.7
2017-03-06T10:18:07.987Z,20.7
2017-03-06T10:20:05.021Z,20.7
2017-03-06T10:22:07.462Z,20.7
2017-03-06T10:24:05.371Z,20.6
2017-03-06T10:26:07.664Z,20.6
2017-03-06T10:28:07.569Z,20.7
2017-03-06T10:30:05.372Z,20.6
2017-03-06T10:32:05.220Z,20.6
2017-03-06T10:34:05.106Z,20.6
2017-03-06T10:36:05.145Z,20.6
2017-03-06T10:38:04.819Z,20.6
2017-03-06T10:40:08.216Z,20.6
2017-03-06T10:42:04.922Z,20.6
2017-03-06T10:44:04.723Z,20.6
2017-03-06T10:46:05.409Z,20.7
2017-03-06T10:48:07.275Z,20.6
2017-03-06T10:50:05.063Z,20.6
2017-03-06T10:52:05.933Z,20.6
2017-03-06T10:54:04.694Z,20.7
2017-03-06T10:56:05.485Z,20.6
2017-03-06T10:58:07.930Z,20.6
2017-03-06T11:00:07.298Z,20.6
2017-03-06T11:02:05.037Z,20.6
2017-03-06T11:04:07.684Z,20.6
2017-03-06T11:06:07.942Z,20.6
2017-03-06T11:08:07.446Z,20.6
2017-03-06T11:10:08.034Z,20.6
2017-03-06T11:12:07.862Z,20.6
2017-03-06T11:14:05.627Z,20.6
2017-03-06T11:16:05.697Z,20.6
2017-03-06T11:18:04.590Z,20.6
2017-03-06T11:20:05.326Z,20.6
2017-03-06T11:22:05.211Z,20.6
2017-03-06T11:24:07.875Z,20.6
2017-03-06T11:26:04.635Z,20.6
2017-03-06T11:28:08.181Z,20.6
2017-03-06T11:30:05.435Z,20.6
2017-03-06T11:32:05.203Z,20.6
2017-03-06T11:34:05.083Z,20.6
2017-03-06T11:36:04.787Z,20.6
2017-03-06T11:38:05.471Z,20.6
2017-03-06T11:40:05.582Z,20.6
2017-03-06T11:42:05.314Z,20.6
2017-03-06T11:44:05.082Z,20.6
2017-03-06T11:46:07.538Z,20.6
2017-03-06T11:48:07.803Z,20.6
2017-03-06T11:50:07.267Z,20.6
2017-03-06T11:52:05.145Z,20.6
2017-03-06T11:54:04.890Z,20.6
2017-03-06T11:56:08.293Z,20.6
2017-03-06T11:58:05.259Z,20.6
2017-03-06T12:00:04.979Z,20.6
2017-03-06T12:02:04.731Z,20.6
2017-03-06T12:04:05.745Z,20.6
2017-03-06T12:06:05.589Z,20.6
2017-03-06T12:08:05.351Z,20.6
2017-03-06T12:10:07.790Z,20.6
2017-03-06T12:12:05.678Z,20.6
2017-03-06T12:14:05.422Z,20.6
2017-03-06T12:16:05.500Z,20.6
2017-03-06T12:18:04.950Z,20.6
2017-03-06T12:20:04.763Z,20.6
2017-03-06T12:22:07.828Z,20.6
2017-03-06T12:24:05.538Z,20.6
2017-03-06T12:26:04.894Z,20.6
2017-03-06T12:28:12.731Z,20.6
2017-03-06T12:30:05.482Z,20.6
2017-03-06T12:32:04.961Z,20.6
2017-03-06T12:34:04.840Z,20.6
2017-03-06T12:36:05.576Z,20.6
2017-03-06T12:38:05.355Z,20.6
2017-03-06T12:40:05.531Z,20.6
2017-03-06T12:42:05.237Z,20.6
2017-03-06T12:44:05.227Z,20.6
2017-03-06T12:46:08.080Z,20.6
2017-03-06T12:48:07.405Z,20.6
2017-03-06T12:50:07.651Z,20.6
2017-03-06T12:52:05.704Z,20.6
2017-03-06T12:54:05.435Z,20.7
2017-03-06T12:56:07.678Z,20.6
2017-03-06T12:58:05.772Z,20.6
2017-03-06T13:00:05.820Z,20.6
2017-03-06T13:02:05.511Z,20.6
2017-03-06T13:04:04.928Z,20.6
2017-03-06T13:06:04.711Z,20.6
2017-03-06T13:08:07.469Z,20.6
2017-03-06T13:10:05.563Z,20.6
2017-03-06T13:12:05.320Z,20.6
2017-03-06T13:14:05.032Z,20.6
2017-03-06T13:16:05.562Z,20.6
2017-03-06T13:18:05.518Z,20.6
2017-03-06T13:20:05.222Z,20.6
2017-03-06T13:22:05.155Z,20.6
2017-03-06T13:24:05.398Z,20.6
2017-03-06T13:26:05.210Z,20.6
2017-03-06T13:28:07.852Z,20.6
2017-03-06T13:30:05.534Z,20.6
2017-03-06T13:32:05.808Z,20.6
2017-03-06T13:34:05.930Z,20.6
2017-03-06T13:36:04.619Z,20.6
2017-03-06T13:38:05.344Z,20.6
2017-03-06T13:40:08.275Z,20.6
2017-03-06T13:42:05.024Z,20.6
2017-03-06T13:44:05.003Z,20.7
2017-03-06T13:46:05.038Z,20.6
2017-03-06T13:48:05.578Z,20.7
2017-03-06T13:50:05.355Z,20.6
2017-03-06T13:52:05.864Z,20.6
2017-03-06T13:54:05.639Z,20.6
2017-03-06T13:56:10.659Z,20.6
2017-03-06T13:58:05.525Z,20.6
2017-03-06T14:00:05.253Z,20.6
2017-03-06T14:02:04.984Z,20.6
2017-03-06T14:04:07.584Z,20.6
2017-03-06T14:06:10.359Z,20.6
2017-03-06T14:08:07.604Z,20.6
2017-03-06T14:10:05.634Z,20.6
2017-03-06T14:12:05.189Z,20.6
2017-03-06T14:14:04.892Z,20.6
2017-03-06T14:16:05.055Z,20.6
2017-03-06T14:18:05.104Z,20.6
2017-03-06T14:20:05.612Z,20.6
2017-03-06T14:22:05.721Z,20.6
2017-03-06T14:24:05.506Z,20.6
2017-03-06T14:26:05.205Z,20.6
2017-03-06T14:28:08.290Z,20.6
2017-03-06T14:30:05.044Z,20.6
2017-03-06T14:32:05.789Z,20.6
2017-03-06T14:34:05.877Z,20.5
2017-03-06T14:36:05.763Z,20.6
2017-03-06T14:38:05.570Z,20.5
2017-03-06T14:40:05.417Z,20.6
2017-03-06T14:42:07.658Z,20.5
2017-03-06T14:44:04.985Z,20.5
2017-03-06T14:46:05.567Z,20.5
2017-03-06T14:48:05.322Z,20.6
2017-03-06T14:50:10.882Z,20.5
2017-03-06T14:52:08.286Z,20.6
2017-03-06T14:54:05.001Z,20.6
2017-03-06T14:56:04.800Z,20.6
2017-03-06T14:58:05.922Z,20.6
2017-03-06T15:00:04.599Z,20.5
2017-03-06T15:02:05.275Z,20.6
2017-03-06T15:04:07.851Z,20.6
2017-03-06T15:06:05.552Z,20.5
2017-03-06T15:08:08.131Z,20.6
2017-03-06T15:10:07.508Z,20.5
2017-03-06T15:12:05.226Z,20.5
2017-03-06T15:14:04.991Z,20.6
2017-03-06T15:16:04.899Z,20.5
2017-03-06T15:18:04.822Z,20.5
2017-03-06T15:20:05.556Z,20.6
2017-03-06T15:22:05.610Z,20.6
2017-03-06T15:24:05.703Z,20.5
2017-03-06T15:26:05.471Z,20.6
2017-03-06T15:28:07.457Z,20.5
2017-03-06T15:30:04.745Z,20.6
2017-03-06T15:32:05.491Z,20.6
2017-03-06T15:34:05.680Z,20.6
2017-03-06T15:36:05.424Z,20.6
2017-03-06T15:38:04.943Z,20.6
2017-03-06T15:40:05.012Z,20.6
2017-03-06T15:42:04.776Z,20.6
2017-03-06T15:44:05.476Z,20.6
2017-03-06T15:46:10.550Z,20.6
2017-03-06T15:48:07.823Z,20.6
2017-03-06T15:50:07.823Z,20.6
2017-03-06T15:52:05.822Z,20.6
2017-03-06T15:54:05.674Z,20.5
2017-03-06T15:56:05.336Z,20.5
2017-03-06T15:58:07.795Z,20.6
2017-03-06T16:00:04.989Z,20.6
2017-03-06T16:02:04.672Z,20.6
2017-03-06T16:04:04.967Z,20.6
2017-03-06T16:06:05.834Z,20.5
2017-03-06T16:08:04.738Z,20.6
2017-03-06T16:10:05.737Z,20.5
2017-03-06T16:12:05.019Z,20.5
2017-03-06T16:14:08.080Z,20.5
2017-03-06T16:16:05.081Z,20.5
2017-03-06T16:18:04.662Z,20.5
2017-03-06T16:20:04.970Z,20.6
2017-03-06T16:22:05.730Z,20.5
2017-03-06T16:24:05.647Z,20.5
2017-03-06T16:26:05.415Z,20.5
2017-03-06T16:28:05.123Z,20.5
2017-03-06T16:30:07.401Z,20.5
2017-03-06T16:32:05.119Z,20.5
2017-03-06T16:34:05.535Z,20.6
2017-03-06T16:36:05.342Z,20.5
2017-03-06T16:38:05.288Z,20.5
2017-03-06T16:40:10.367Z,20.5
2017-03-06T16:42:05.137Z,20.5
2017-03-06T16:44:05.272Z,20.5
2017-03-06T16:46:05.325Z,20.5
2017-03-06T16:48:05.103Z,20.5
2017-03-06T16:50:09.909Z,20.5
2017-03-06T16:52:07.513Z,20.5
2017-03-06T16:54:07.858Z,20.5
2017-03-06T16:56:04.612Z,20.5
2017-03-06T16:58:08.105Z,20.5
2017-03-06T17:00:05.220Z,20.5
2017-03-06T17:02:07.715Z,20.5
2017-03-06T17:04:05.708Z,20.5
2017-03-06T17:06:05.428Z,20.5
2017-03-06T17:08:05.194Z,20.5
2017-03-06T17:10:04.941Z,20.5
2017-03-06T17:12:04.705Z,20.5
2017-03-06T17:14:05.422Z,20.5
2017-03-06T17:16:05.299Z,20.5
2017-03-06T17:18:05.263Z,20.5
2017-03-06T17:20:05.000Z,20.5
2017-03-06T17:22:05.019Z,20.5
2017-03-06T17:24:05.512Z,20.5
2017-03-06T17:26:10.365Z,20.5
2017-03-06T17:28:05.411Z,20.5
2017-03-06T17:30:07.755Z,20.5
2017-03-06T17:32:10.818Z,20.5
2017-03-06T17:34:05.687Z,20.5
2017-03-06T17:36:05.407Z,20.5
2017-03-06T17:38:04.678Z,20.4
2017-03-06T17:40:05.934Z,20.5
2017-03-06T17:42:04.744Z,20.5
2017-03-06T17:44:05.527Z,20.5
2017-03-06T17:46:05.435Z,20.5
2017-03-06T17:48:05.503Z,20.5
2017-03-06T17:50:05.248Z,20.4
2017-03-06T17:52:05.643Z,20.5
2017-03-06T17:54:05.545Z,20.5
2017-03-06T17:56:05.401Z,20.5
2017-03-06T17:58:10.473Z,20.6
2017-03-06T18:00:05.261Z,20.6
2017-03-06T18:02:05.417Z,20.6
2017-03-06T18:04:05.473Z,20.6
2017-03-06T18:06:04.724Z,20.6
2017-03-06T18:08:05.483Z,20.6
2017-03-06T18:10:10.231Z,20.7
2017-03-06T18:12:10.523Z,20.7
2017-03-06T18:14:05.236Z,20.7
2017-03-06T18:16:07.727Z,20.7
2017-03-06T18:18:04.622Z,20.7
2017-03-06T18:20:10.849Z,20.8
2017-03-06T18:22:05.277Z,20.8
2017-03-06T18:24:07.498Z,20.7
2017-03-06T18:26:05.235Z,20.7
2017-03-06T18:28:07.801Z,20.8
2017-03-06T18:30:05.543Z,20.7
2017-03-06T18:32:08.017Z,20.7
2017-03-06T18:34:05.216Z,20.7
2017-03-06T18:36:05.108Z,20.7
2017-03-06T18:38:04.916Z,20.7
2017-03-06T18:40:10.428Z,20.7
2017-03-06T18:42:05.137Z,20.7
2017-03-06T18:44:04.951Z,20.7
2017-03-06T18:46:04.821Z,20.7
2017-03-06T18:48:05.517Z,20.7
2017-03-06T18:50:07.761Z,20.7
2017-03-06T18:52:05.611Z,20.7
2017-03-06T18:54:05.380Z,20.8
2017-03-06T18:56:05.231Z,20.7
2017-03-06T18:58:10.162Z,20.8
2017-03-06T19:00:04.884Z,20.9
2017-03-06T19:02:08.169Z,21
2017-03-06T19:04:05.200Z,21
2017-03-06T19:06:05.092Z,21
2017-03-06T19:08:07.882Z,21
2017-03-06T19:10:08.283Z,21.1
2017-03-06T19:12:05.055Z,21.1
2017-03-06T19:14:04.768Z,21.1
2017-03-06T19:16:05.677Z,21.1
2017-03-06T19:18:05.644Z,21.1
2017-03-06T19:20:05.387Z,21.1
2017-03-06T19:22:04.811Z,21.1
2017-03-06T19:24:05.639Z,21.1
2017-03-06T19:26:05.588Z,21.2
2017-03-06T19:28:06.116Z,21.2
2017-03-06T19:30:05.425Z,21.2
2017-03-06T19:32:05.174Z,21.2
2017-03-06T19:34:05.249Z,21.1
2017-03-06T19:36:05.004Z,21.1
2017-03-06T19:38:04.800Z,21
2017-03-06T19:40:05.567Z,21
2017-03-06T19:42:05.329Z,21.1
2017-03-06T19:44:05.109Z,21.1
2017-03-06T19:46:05.090Z,21.2
2017-03-06T19:48:04.844Z,21.2
2017-03-06T19:50:07.168Z,21.2
2017-03-06T19:52:08.896Z,21.3
2017-03-06T19:54:05.395Z,21.3
2017-03-06T19:56:05.419Z,21.3
2017-03-06T19:58:05.596Z,21.3
2017-03-06T20:00:05.632Z,21.3
2017-03-06T20:02:10.502Z,21.2
2017-03-06T20:04:05.639Z,21.2
2017-03-06T20:06:07.944Z,21.2
2017-03-06T20:08:07.265Z,21.3
2017-03-06T20:10:10.087Z,21.2
2017-03-06T20:12:07.750Z,21.3
2017-03-06T20:14:07.180Z,21.2
2017-03-06T20:16:05.195Z,21.3
2017-03-06T20:18:15.022Z,21.2
2017-03-06T20:20:04.740Z,21.3
2017-03-06T20:22:06.279Z,21.2
2017-03-06T20:24:12.783Z,21.2
2017-03-06T20:26:05.228Z,21.2
2017-03-06T20:28:05.232Z,21.2
2017-03-06T20:30:04.957Z,21.2
2017-03-06T20:32:05.027Z,21.2
2017-03-06T20:34:05.235Z,21.2
2017-03-06T20:36:05.247Z,21.2
2017-03-06T20:38:07.555Z,21.2
2017-03-06T20:40:05.656Z,21.2
2017-03-06T20:42:07.927Z,21.2
2017-03-06T20:44:07.591Z,21.2
2017-03-06T20:46:05.204Z,21.2
2017-03-06T20:48:04.917Z,21.2
2017-03-06T20:50:07.209Z,21.2
2017-03-06T20:52:05.285Z,21.2
2017-03-06T20:54:05.009Z,21.2
2017-03-06T20:56:04.706Z,21.3
2017-03-06T20:58:16.518Z,21.2
2017-03-06T21:00:05.661Z,21.2
2017-03-06T21:02:05.379Z,21.2
2017-03-06T21:04:10.447Z,21.2
2017-03-06T21:06:05.177Z,21.2
2017-03-06T21:08:04.943Z,21.3
2017-03-06T21:10:07.460Z,21.3
2017-03-06T21:12:05.110Z,21.3
2017-03-06T21:14:04.817Z,21.3
2017-03-06T21:16:08.488Z,21.3
2017-03-06T21:18:07.500Z,21.2
2017-03-06T21:20:07.790Z,21.3
2017-03-06T21:22:05.675Z,21.3
2017-03-06T21:24:05.404Z,21.2
2017-03-06T21:26:07.690Z,21.3
2017-03-06T21:28:05.602Z,21.2
2017-03-06T21:30:07.900Z,21.3
2017-03-06T21:32:05.643Z,21.2
2017-03-06T21:34:05.724Z,21.2
2017-03-06T21:36:05.487Z,21.3
2017-03-06T21:38:07.816Z,21.3
2017-03-06T21:40:04.973Z,21.3
2017-03-06T21:42:04.680Z,21.3
2017-03-06T21:44:05.395Z,21.2
2017-03-06T21:46:05.452Z,21.2
2017-03-06T21:48:05.476Z,21.3
2017-03-06T21:50:05.232Z,21.3
2017-03-06T21:52:05.312Z,21.2
2017-03-06T21:54:05.325Z,21.2
2017-03-06T21:56:05.138Z,21.3
2017-03-06T21:58:05.017Z,21.2
2017-03-06T22:00:04.721Z,21.2
2017-03-06T22:02:05.414Z,21.2
2017-03-06T22:04:05.314Z,21.2
2017-03-06T22:06:04.782Z,21.2
2017-03-06T22:08:05.476Z,21.2
2017-03-06T22:10:05.589Z,21.2
2017-03-06T22:12:05.251Z,21.2
2017-03-06T22:14:04.939Z,21.2
2017-03-06T22:16:04.937Z,21.2
2017-03-06T22:18:05.015Z,21.2
2017-03-06T22:20:12.544Z,21.2
2017-03-06T22:22:08.062Z,21.2
2017-03-06T22:24:07.350Z,21.2
2017-03-06T22:26:05.118Z,21.2
2017-03-06T22:28:05.102Z,21.2
2017-03-06T22:30:04.814Z,21.2
2017-03-06T22:32:10.601Z,21.2
2017-03-06T22:34:05.643Z,21.2
2017-03-06T22:36:05.678Z,21.2
2017-03-06T22:38:04.988Z,21.2
2017-03-06T22:40:04.832Z,21.2
2017-03-06T22:42:05.571Z,21.3
2017-03-06T22:44:05.295Z,21.2
2017-03-06T22:46:05.433Z,21.2
2017-03-06T22:48:07.710Z,21.2
2017-03-06T22:50:05.483Z,21.2
2017-03-06T22:52:05.585Z,21.3
2017-03-06T22:54:05.348Z,21.3
2017-03-06T22:56:07.682Z,21.3
2017-03-06T22:58:08.202Z,21.3
2017-03-06T23:00:04.977Z,21.3
2017-03-06T23:02:04.717Z,21.3
2017-03-06T23:04:05.766Z,21.3
2017-03-06T23:06:05.584Z,21.3
2017-03-06T23:08:05.654Z,21.3
2017-03-06T23:10:05.758Z,21.3
2017-03-06T23:12:08.157Z,21.3
2017-03-06T23:14:07.570Z,21.3
2017-03-06T23:16:13.219Z,21.3
2017-03-06T23:18:05.268Z,21.3
2017-03-06T23:20:04.978Z,21.3
2017-03-06T23:22:04.993Z,21.3
2017-03-06T23:24:05.632Z,21.3
2017-03-06T23:26:05.424Z,21.3
2017-03-06T23:28:05.641Z,21.3
2017-03-06T23:30:07.942Z,21.3
2017-03-06T23:32:04.620Z,21.3
2017-03-06T23:34:08.151Z,21.3
2017-03-06T23:36:04.858Z,21.3
2017-03-06T23:38:05.608Z,21.3
2017-03-06T23:40:05.658Z,21.3
2017-03-06T23:42:05.380Z,21.3
2017-03-06T23:44:04.735Z,21.3
2017-03-06T23:46:05.024Z,21.3
2017-03-06T23:48:12.538Z,21.3
2017-03-06T23:50:05.307Z,21.3
2017-03-06T23:52:05.218Z,21.3
2017-03-06T23:54:10.003Z,21.3
2017-03-06T23:56:07.395Z,21.3
2017-03-06T23:58:05.460Z,21.3
